CSCL Fuzhou — ELYA7 — position and weather

sailwx.info

Track history (hours):
 
Tides and Currents Weather Stations Pressure Air Temp Water Temp Dewpoint Dewpoint Depression Visibility Wind Speed Wind Dir Waves Ship Positions

CSCL Fuzhou

Last reported at 2014-Dec-12 20:19 UTC. Time now 2014-Dec-18 00:54 UTC.
Position N 22°15' E 120°12'.

Length 207.4 m; beam 29.8 m; draft 11.4 m.

Type: Ship (hazmat cat A). MMSI: 636016483.

Date/timePositionNaut miles runAvg speedWind from/ knotsBaromVisibWave heightAir tempDewpointWater temp
2014-Dec-12 20:19N 22°15' E 120°12'1115.1
2014-Dec-12 19:33N 22°26' E 120°13'9 9.2
2014-Dec-12 18:33N 22°34' E 120°19'1 1.0
2014-Dec-12 17:28N 22°35' E 120°18'0 0.0
2014-Dec-12 16:28N 22°35' E 120°18'0 0.0
2014-Dec-12 15:28N 22°35' E 120°18'0 0.0
2014-Dec-12 14:28N 22°35' E 120°18'0 0.0
2014-Dec-12 13:28N 22°35' E 120°18'0 0.0
2014-Dec-12 12:33N 22°35' E 120°18'1 1.3
2014-Dec-12 11:33N 22°34' E 120°19'0 0.0
2014-Dec-12 10:33N 22°33' E 120°19'0 0.0
2014-Dec-12 09:33N 22°33' E 120°19'0 0.0
2014-Dec-12 08:33N 22°33' E 120°19'0 0.0
2014-Dec-12 07:33N 22°33' E 120°19'0 0.0
2014-Dec-12 06:33N 22°33' E 120°19'0 0.0
2014-Dec-12 05:33N 22°34' E 120°19'0 0.0
2014-Dec-12 04:33N 22°33' E 120°19'0 0.0
2014-Dec-12 03:33N 22°33' E 120°19'0 0.0
2014-Dec-12 02:33N 22°34' E 120°19'0 0.0
2014-Dec-12 01:27N 22°34' E 120°19'0 0.0
2014-Dec-12 00:33N 22°34' E 120°19'0 0.0
2014-Dec-11 23:33N 22°34' E 120°19'0 0.0
2014-Dec-11 22:15N 22°34' E 120°19'0 0.0
2014-Dec-11 21:33N 22°34' E 120°19'0 0.0
2014-Dec-11 20:33N 22°34' E 120°19'0 0.0
2014-Dec-11 19:33N 22°34' E 120°19'0 0.0
2014-Dec-11 18:33N 22°33' E 120°19'0 0.0
2014-Dec-11 17:33N 22°34' E 120°19'0 0.0
2014-Dec-11 16:33N 22°34' E 120°19'0 0.0
2014-Dec-11 15:33N 22°34' E 120°19'0 0.0
2014-Dec-11 14:33N 22°34' E 120°19'0 0.0
2014-Dec-11 13:27N 22°33' E 120°19'0 0.0
2014-Dec-11 12:33N 22°34' E 120°19'1 1.4
2014-Dec-11 11:33N 22°33' E 120°17'2 2.0
2014-Dec-11 10:28N 22°33' E 120°15'0 0.1
2014-Dec-11 09:28N 22°33' E 120°15'0 0.0
2014-Dec-11 08:28N 22°33' E 120°15'0 0.0
2014-Dec-11 07:28N 22°33' E 120°15'0 0.0
2014-Dec-11 06:28N 22°33' E 120°15'0 0.0
2014-Dec-11 05:22N 22°33' E 120°15'0 0.0
2014-Dec-11 03:28N 22°33' E 120°15'0 0.0
2014-Dec-11 02:16N 22°33' E 120°15'0 0.0
2014-Dec-11 01:28N 22°33' E 120°15'0 0.0
2014-Dec-11 00:16N 22°33' E 120°15'0 0.0
2014-Dec-10 23:28N 22°33' E 120°15'0 0.0
2014-Dec-10 22:16N 22°33' E 120°15'0 0.0
2014-Dec-10 21:28N 22°33' E 120°15'0 0.0
2014-Dec-10 20:28N 22°33' E 120°15'0 0.0
2014-Dec-10 19:28N 22°33' E 120°15'0 0.1
2014-Dec-10 18:28N 22°33' E 120°15'0 0.1
2014-Dec-10 17:28N 22°33' E 120°15'0 0.1
2014-Dec-10 16:28N 22°33' E 120°15'0 0.1
2014-Dec-10 15:10N 22°33' E 120°15'0 0.0
2014-Dec-10 14:22N 22°33' E 120°15'0 0.0
2014-Dec-10 13:28N 22°33' E 120°15'0 0.1
2014-Dec-10 12:28N 22°33' E 120°15'0 0.0
2014-Dec-10 11:28N 22°33' E 120°15'0 0.0
2014-Dec-10 10:28N 22°33' E 120°15'0 0.0
2014-Dec-10 09:28N 22°33' E 120°15'0 0.0
2014-Dec-10 08:28N 22°33' E 120°15'0 0.0
2014-Dec-10 07:31N 22°33' E 120°15'0 0.0
2014-Dec-10 06:33N 22°33' E 120°15'0 0.1
2014-Dec-10 05:33N 22°33' E 120°15'0 0.0
2014-Dec-10 03:27N 22°33' E 120°15'0 0.1
2014-Dec-10 02:31N 22°33' E 120°15'0 0.0
2014-Dec-10 01:33N 22°33' E 120°15'0 0.1
2014-Dec-10 00:33N 22°33' E 120°15'4 3.8
2014-Dec-09 23:33N 22°33' E 120°19'0 0.3
2014-Dec-09 22:31N 22°33' E 120°19'0 0.0
2014-Dec-09 21:31N 22°33' E 120°19'0 0.0
2014-Dec-09 20:31N 22°33' E 120°19'0 0.0
2014-Dec-09 19:31N 22°33' E 120°19'0 0.0
2014-Dec-09 18:31N 22°33' E 120°19'0 0.0
2014-Dec-09 17:25N 22°33' E 120°19'0 0.0
2014-Dec-09 16:31N 22°33' E 120°19'0 0.0
2014-Dec-09 15:25N 22°33' E 120°19'0 0.0
2014-Dec-09 14:31N 22°33' E 120°19'0 0.0
2014-Dec-09 13:31N 22°33' E 120°19'0 0.0
2014-Dec-09 12:32N 22°33' E 120°19'4 3.9
2014-Dec-09 11:33N 22°32' E 120°15'1313.3
2014-Dec-09 10:34N 22°19' E 120°14'  
Track history (hours):
 
Tides and Currents Weather Stations Pressure Air Temp Water Temp Dewpoint Dewpoint Depression Visibility Wind Speed Wind Dir Waves Ship Positions

CSCL Fuzhou

Last reported at 2014-Dec-12 20:19 UTC. Time now 2014-Dec-18 00:54 UTC.
Position N 22°15' E 120°12'.

Length 207.4 m; beam 29.8 m; draft 11.4 m.

Type: Ship (hazmat cat A). MMSI: 636016483.

Date/timePositionNaut miles runAvg speedWind from/ knotsBaromVisibWave heightAir tempDewpointWater temp
2014-Dec-12 20:19N 22°15' E 120°12'1115.1
2014-Dec-12 19:33N 22°26' E 120°13'9 9.2
2014-Dec-12 18:33N 22°34' E 120°19'1 1.0
2014-Dec-12 17:28N 22°35' E 120°18'0 0.0
2014-Dec-12 16:28N 22°35' E 120°18'0 0.0
2014-Dec-12 15:28N 22°35' E 120°18'0 0.0
2014-Dec-12 14:28N 22°35' E 120°18'0 0.0
2014-Dec-12 13:28N 22°35' E 120°18'0 0.0
2014-Dec-12 12:33N 22°35' E 120°18'1 1.3
2014-Dec-12 11:33N 22°34' E 120°19'0 0.0
2014-Dec-12 10:33N 22°33' E 120°19'0 0.0
2014-Dec-12 09:33N 22°33' E 120°19'0 0.0
2014-Dec-12 08:33N 22°33' E 120°19'0 0.0
2014-Dec-12 07:33N 22°33' E 120°19'0 0.0
2014-Dec-12 06:33N 22°33' E 120°19'0 0.0
2014-Dec-12 05:33N 22°34' E 120°19'0 0.0
2014-Dec-12 04:33N 22°33' E 120°19'0 0.0
2014-Dec-12 03:33N 22°33' E 120°19'0 0.0
2014-Dec-12 02:33N 22°34' E 120°19'0 0.0
2014-Dec-12 01:27N 22°34' E 120°19'0 0.0
2014-Dec-12 00:33N 22°34' E 120°19'0 0.0
2014-Dec-11 23:33N 22°34' E 120°19'0 0.0
2014-Dec-11 22:15N 22°34' E 120°19'0 0.0
2014-Dec-11 21:33N 22°34' E 120°19'0 0.0
2014-Dec-11 20:33N 22°34' E 120°19'0 0.0
2014-Dec-11 19:33N 22°34' E 120°19'0 0.0
2014-Dec-11 18:33N 22°33' E 120°19'0 0.0
2014-Dec-11 17:33N 22°34' E 120°19'0 0.0
2014-Dec-11 16:33N 22°34' E 120°19'0 0.0
2014-Dec-11 15:33N 22°34' E 120°19'0 0.0
2014-Dec-11 14:33N 22°34' E 120°19'0 0.0
2014-Dec-11 13:27N 22°33' E 120°19'0 0.0
2014-Dec-11 12:33N 22°34' E 120°19'1 1.4
2014-Dec-11 11:33N 22°33' E 120°17'2 2.0
2014-Dec-11 10:28N 22°33' E 120°15'0 0.1
2014-Dec-11 09:28N 22°33' E 120°15'0 0.0
2014-Dec-11 08:28N 22°33' E 120°15'0 0.0
2014-Dec-11 07:28N 22°33' E 120°15'0 0.0
2014-Dec-11 06:28N 22°33' E 120°15'0 0.0
2014-Dec-11 05:22N 22°33' E 120°15'0 0.0
2014-Dec-11 03:28N 22°33' E 120°15'0 0.0
2014-Dec-11 02:16N 22°33' E 120°15'0 0.0
2014-Dec-11 01:28N 22°33' E 120°15'0 0.0
2014-Dec-11 00:16N 22°33' E 120°15'0 0.0
2014-Dec-10 23:28N 22°33' E 120°15'0 0.0
2014-Dec-10 22:16N 22°33' E 120°15'0 0.0
2014-Dec-10 21:28N 22°33' E 120°15'0 0.0
2014-Dec-10 20:28N 22°33' E 120°15'0 0.0
2014-Dec-10 19:28N 22°33' E 120°15'0 0.1
2014-Dec-10 18:28N 22°33' E 120°15'0 0.1
2014-Dec-10 17:28N 22°33' E 120°15'0 0.1
2014-Dec-10 16:28N 22°33' E 120°15'0 0.1
2014-Dec-10 15:10N 22°33' E 120°15'0 0.0
2014-Dec-10 14:22N 22°33' E 120°15'0 0.0
2014-Dec-10 13:28N 22°33' E 120°15'0 0.1
2014-Dec-10 12:28N 22°33' E 120°15'0 0.0
2014-Dec-10 11:28N 22°33' E 120°15'0 0.0
2014-Dec-10 10:28N 22°33' E 120°15'0 0.0
2014-Dec-10 09:28N 22°33' E 120°15'0 0.0
2014-Dec-10 08:28N 22°33' E 120°15'0 0.0
2014-Dec-10 07:31N 22°33' E 120°15'0 0.0
2014-Dec-10 06:33N 22°33' E 120°15'0 0.1
2014-Dec-10 05:33N 22°33' E 120°15'0 0.0
2014-Dec-10 03:27N 22°33' E 120°15'0 0.1
2014-Dec-10 02:31N 22°33' E 120°15'0 0.0
2014-Dec-10 01:33N 22°33' E 120°15'0 0.1
2014-Dec-10 00:33N 22°33' E 120°15'4 3.8
2014-Dec-09 23:33N 22°33' E 120°19'0 0.3
2014-Dec-09 22:31N 22°33' E 120°19'0 0.0
2014-Dec-09 21:31N 22°33' E 120°19'0 0.0
2014-Dec-09 20:31N 22°33' E 120°19'0 0.0
2014-Dec-09 19:31N 22°33' E 120°19'0 0.0
2014-Dec-09 18:31N 22°33' E 120°19'0 0.0
2014-Dec-09 17:25N 22°33' E 120°19'0 0.0
2014-Dec-09 16:31N 22°33' E 120°19'0 0.0
2014-Dec-09 15:25N 22°33' E 120°19'0 0.0
2014-Dec-09 14:31N 22°33' E 120°19'0 0.0
2014-Dec-09 13:31N 22°33' E 120°19'0 0.0
2014-Dec-09 12:32N 22°33' E 120°19'4 3.9
2014-Dec-09 11:33N 22°32' E 120°15'1313.3
2014-Dec-09 10:34N 22°19' E 120°14'  

Dump ship's entire track history